首页
METAR-TAF:

METAR-TAF

机场 :

蒙特利尔皮埃尔·埃利奥特·特鲁多国际机场

蒙特利尔特鲁多, 魁北克, 加拿大

纬度: 45-28N, 经度: 073-45W, 海拔: 31米

当前天气观测

该预报发布于13分钟前的23:00 UTC
风速10节,风向南转南东
温度 18°C
湿度 77%
气压 1008 hPa
能見度: 24.1公里
多云层高于3700英尺
阴天层高于6000英尺
小阵雨

METAR: CYUL 232300Z 16010KT 15SM -SHRA BKN037 OVC060 18/14 A2978 RMK SC7SC1 CVCTV CLD EMBD SLP087 DENSITY ALT 700FT

时间: 19:13 (23:13 UTC)

预报

该预报发布于2小时和35分钟前的20:38 UTC
预报有效从23日的 21点(UTC)到 24日的 18点(UTC)
风速12节,风向东南
能見度: 10公里
阴天层高于6000英尺
短暂存在
从 23日的 21点(UTC)到 24日的 05点(UTC)
能見度: 10公里
小阵雨
从 24日的 0600点(UTC)
风速7节,风向东南
能見度: 10公里
多云层高于7000英尺
成为
从 24日的 10点(UTC)到 24日的 12点(UTC)
风速3节,风向多变
成为
从 24日的 16点(UTC)到 24日的 18点(UTC)
风速10节,风向西转西南

TAF: CYUL 232038Z 2321/2418 14012KT P6SM OVC060 TEMPO 2321/2405 P6SM -SHRA FM240600 14007KT P6SM BKN070 BECMG 2410/2412 VRB03KT BECMG 2416/2418 24010KT RMK NXT FCST BY 240000Z

超过4000个机场的气象观测和天气预报(METAR&TAF报告)。

可查询的气象台以黄色和红色小点在地图上表示。

将鼠标移到小点上方,可查看气象台名称。

然后点击查看天气观测和预报。

如需切换地图:点击带黑十字的绿色按钮放大地图;点击带横线的绿色按钮缩小地图;或者点击绿色箭头查看邻近地区的地图。


METAR-TAF: